sensor_id;sensor_type;location;lat;lon;timestamp;P1;durP1;ratioP1;P2;durP2;ratioP2
41627;SDS011;27321;50.816;6.054;2023-06-26T00:00:57;5.60;;;5.10;;
41627;SDS011;27321;50.816;6.054;2023-06-26T00:03:58;4.75;;;4.30;;
41627;SDS011;27321;50.816;6.054;2023-06-26T00:07:01;5.68;;;5.13;;
41627;SDS011;27321;50.816;6.054;2023-06-26T00:10:02;5.20;;;4.70;;
41627;SDS011;27321;50.816;6.054;2023-06-26T00:13:04;4.93;;;4.30;;
41627;SDS011;27321;50.816;6.054;2023-06-26T00:16:05;5.45;;;4.95;;
41627;SDS011;27321;50.816;6.054;2023-06-26T00:19:06;5.35;;;4.85;;
41627;SDS011;27321;50.816;6.054;2023-06-26T00:22:07;4.70;;;4.30;;
41627;SDS011;27321;50.816;6.054;2023-06-26T00:25:08;5.50;;;5.00;;
41627;SDS011;27321;50.816;6.054;2023-06-26T00:28:09;4.45;;;4.15;;
41627;SDS011;27321;50.816;6.054;2023-06-26T00:31:12;5.20;;;4.80;;
41627;SDS011;27321;50.816;6.054;2023-06-26T00:34:12;5.75;;;5.05;;
41627;SDS011;27321;50.816;6.054;2023-06-26T00:37:15;4.78;;;4.38;;
41627;SDS011;27321;50.816;6.054;2023-06-26T00:40:16;5.40;;;4.38;;
41627;SDS011;27321;50.816;6.054;2023-06-26T00:43:17;4.88;;;4.47;;
41627;SDS011;27321;50.816;6.054;2023-06-26T00:46:18;4.78;;;4.35;;
41627;SDS011;27321;50.816;6.054;2023-06-26T00:49:19;5.22;;;4.72;;
41627;SDS011;27321;50.816;6.054;2023-06-26T00:52:20;4.97;;;4.57;;
41627;SDS011;27321;50.816;6.054;2023-06-26T00:55:21;4.70;;;4.30;;
41627;SDS011;27321;50.816;6.054;2023-06-26T00:58:22;5.30;;;4.80;;
41627;SDS011;27321;50.816;6.054;2023-06-26T01:01:25;5.38;;;4.88;;
41627;SDS011;27321;50.816;6.054;2023-06-26T01:04:26;5.72;;;5.22;;
41627;SDS011;27321;50.816;6.054;2023-06-26T01:07:33;5.63;;;4.90;;
41627;SDS011;27321;50.816;6.054;2023-06-26T01:10:36;5.20;;;4.72;;
41627;SDS011;27321;50.816;6.054;2023-06-26T01:13:37;5.00;;;4.60;;
41627;SDS011;27321;50.816;6.054;2023-06-26T01:16:40;4.93;;;4.53;;
41627;SDS011;27321;50.816;6.054;2023-06-26T01:19:47;5.43;;;4.90;;
41627;SDS011;27321;50.816;6.054;2023-06-26T01:26:32;4.93;;;4.50;;
41627;SDS011;27321;50.816;6.054;2023-06-26T01:29:35;4.70;;;4.30;;
41627;SDS011;27321;50.816;6.054;2023-06-26T01:32:37;4.90;;;4.50;;
41627;SDS011;27321;50.816;6.054;2023-06-26T01:35:39;5.00;;;4.53;;
41627;SDS011;27321;50.816;6.054;2023-06-26T01:38:41;5.05;;;4.65;;
41627;SDS011;27321;50.816;6.054;2023-06-26T01:41:42;5.25;;;4.78;;
41627;SDS011;27321;50.816;6.054;2023-06-26T01:44:45;5.40;;;4.78;;
41627;SDS011;27321;50.816;6.054;2023-06-26T01:47:48;6.07;;;5.45;;
41627;SDS011;27321;50.816;6.054;2023-06-26T01:50:52;5.32;;;4.82;;
41627;SDS011;27321;50.816;6.054;2023-06-26T01:53:54;6.97;;;5.30;;
41627;SDS011;27321;50.816;6.054;2023-06-26T01:56:59;6.22;;;5.45;;
41627;SDS011;27321;50.816;6.054;2023-06-26T02:00:01;5.85;;;5.35;;
41627;SDS011;27321;50.816;6.054;2023-06-26T02:03:13;5.22;;;4.80;;
41627;SDS011;27321;50.816;6.054;2023-06-26T02:06:14;8.48;;;5.70;;
41627;SDS011;27321;50.816;6.054;2023-06-26T02:09:15;6.07;;;5.47;;
41627;SDS011;27321;50.816;6.054;2023-06-26T02:12:18;7.45;;;6.00;;
41627;SDS011;27321;50.816;6.054;2023-06-26T02:15:19;6.20;;;5.13;;
41627;SDS011;27321;50.816;6.054;2023-06-26T02:18:19;5.93;;;5.43;;
41627;SDS011;27321;50.816;6.054;2023-06-26T02:21:23;5.75;;;5.25;;
41627;SDS011;27321;50.816;6.054;2023-06-26T02:24:24;5.60;;;5.10;;
41627;SDS011;27321;50.816;6.054;2023-06-26T02:27:27;6.57;;;5.40;;
41627;SDS011;27321;50.816;6.054;2023-06-26T02:30:28;6.18;;;5.57;;
41627;SDS011;27321;50.816;6.054;2023-06-26T02:33:29;6.18;;;5.60;;
41627;SDS011;27321;50.816;6.054;2023-06-26T02:36:30;5.85;;;5.35;;
41627;SDS011;27321;50.816;6.054;2023-06-26T02:39:31;6.30;;;5.72;;
41627;SDS011;27321;50.816;6.054;2023-06-26T02:45:34;6.93;;;5.20;;
41627;SDS011;27321;50.816;6.054;2023-06-26T02:48:35;5.70;;;5.20;;
41627;SDS011;27321;50.816;6.054;2023-06-26T02:51:36;8.20;;;5.18;;
41627;SDS011;27321;50.816;6.054;2023-06-26T02:54:45;7.10;;;5.22;;
41627;SDS011;27321;50.816;6.054;2023-06-26T02:57:47;5.13;;;4.63;;
41627;SDS011;27321;50.816;6.054;2023-06-26T03:00:49;5.30;;;4.63;;
41627;SDS011;27321;50.816;6.054;2023-06-26T03:03:53;5.30;;;4.80;;
41627;SDS011;27321;50.816;6.054;2023-06-26T03:06:55;4.80;;;4.28;;
41627;SDS011;27321;50.816;6.054;2023-06-26T03:09:56;5.03;;;4.53;;
41627;SDS011;27321;50.816;6.054;2023-06-26T03:12:57;5.75;;;4.45;;
41627;SDS011;27321;50.816;6.054;2023-06-26T03:18:59;5.22;;;4.68;;
41627;SDS011;27321;50.816;6.054;2023-06-26T03:22:02;6.80;;;4.78;;
41627;SDS011;27321;50.816;6.054;2023-06-26T03:25:04;6.03;;;4.75;;
41627;SDS011;27321;50.816;6.054;2023-06-26T03:28:06;5.00;;;4.55;;
41627;SDS011;27321;50.816;6.054;2023-06-26T03:31:09;5.63;;;4.90;;
41627;SDS011;27321;50.816;6.054;2023-06-26T03:34:10;5.65;;;4.55;;
41627;SDS011;27321;50.816;6.054;2023-06-26T03:37:11;7.32;;;5.22;;
41627;SDS011;27321;50.816;6.054;2023-06-26T03:40:12;7.57;;;4.55;;
41627;SDS011;27321;50.816;6.054;2023-06-26T03:43:13;7.30;;;4.65;;
41627;SDS011;27321;50.816;6.054;2023-06-26T03:46:24;5.20;;;4.68;;
41627;SDS011;27321;50.816;6.054;2023-06-26T03:49:25;7.53;;;4.88;;
41627;SDS011;27321;50.816;6.054;2023-06-26T03:52:27;5.63;;;4.90;;
41627;SDS011;27321;50.816;6.054;2023-06-26T03:55:31;5.22;;;3.85;;
41627;SDS011;27321;50.816;6.054;2023-06-26T03:58:31;5.20;;;4.38;;
41627;SDS011;27321;50.816;6.054;2023-06-26T04:01:32;5.72;;;4.03;;
41627;SDS011;27321;50.816;6.054;2023-06-26T04:04:33;5.45;;;4.00;;
41627;SDS011;27321;50.816;6.054;2023-06-26T04:07:34;5.80;;;4.32;;
41627;SDS011;27321;50.816;6.054;2023-06-26T04:10:38;6.53;;;4.60;;
41627;SDS011;27321;50.816;6.054;2023-06-26T04:13:39;6.60;;;4.60;;
41627;SDS011;27321;50.816;6.054;2023-06-26T04:16:40;4.63;;;4.22;;
41627;SDS011;27321;50.816;6.054;2023-06-26T04:19:41;5.47;;;3.58;;
41627;SDS011;27321;50.816;6.054;2023-06-26T04:22:42;5.90;;;3.85;;
41627;SDS011;27321;50.816;6.054;2023-06-26T04:25:43;7.47;;;3.47;;
41627;SDS011;27321;50.816;6.054;2023-06-26T04:28:44;5.68;;;3.50;;
41627;SDS011;27321;50.816;6.054;2023-06-26T04:31:45;5.45;;;3.38;;
41627;SDS011;27321;50.816;6.054;2023-06-26T04:37:48;3.67;;;2.80;;
41627;SDS011;27321;50.816;6.054;2023-06-26T04:40:49;4.63;;;3.10;;
41627;SDS011;27321;50.816;6.054;2023-06-26T04:43:49;5.75;;;3.53;;
41627;SDS011;27321;50.816;6.054;2023-06-26T04:46:50;5.82;;;3.47;;
41627;SDS011;27321;50.816;6.054;2023-06-26T04:52:53;6.80;;;3.42;;
41627;SDS011;27321;50.816;6.054;2023-06-26T04:55:54;4.28;;;3.55;;
41627;SDS011;27321;50.816;6.054;2023-06-26T04:58:55;5.82;;;3.25;;
41627;SDS011;27321;50.816;6.054;2023-06-26T05:01:55;3.67;;;3.00;;
41627;SDS011;27321;50.816;6.054;2023-06-26T05:04:56;5.90;;;3.20;;
41627;SDS011;27321;50.816;6.054;2023-06-26T05:07:57;4.07;;;3.15;;
41627;SDS011;27321;50.816;6.054;2023-06-26T05:10:58;7.75;;;3.30;;
41627;SDS011;27321;50.816;6.054;2023-06-26T05:13:59;5.97;;;3.30;;
41627;SDS011;27321;50.816;6.054;2023-06-26T05:17:00;6.78;;;3.55;;
41627;SDS011;27321;50.816;6.054;2023-06-26T05:20:01;9.98;;;3.72;;
41627;SDS011;27321;50.816;6.054;2023-06-26T05:23:04;5.38;;;3.17;;
41627;SDS011;27321;50.816;6.054;2023-06-26T05:26:05;5.43;;;3.47;;
41627;SDS011;27321;50.816;6.054;2023-06-26T05:29:07;3.45;;;3.00;;
41627;SDS011;27321;50.816;6.054;2023-06-26T05:32:08;5.55;;;3.80;;
41627;SDS011;27321;50.816;6.054;2023-06-26T05:35:10;4.97;;;3.38;;
41627;SDS011;27321;50.816;6.054;2023-06-26T05:38:13;8.38;;;3.38;;
41627;SDS011;27321;50.816;6.054;2023-06-26T05:41:15;5.95;;;3.70;;
41627;SDS011;27321;50.816;6.054;2023-06-26T05:44:16;7.05;;;4.07;;
41627;SDS011;27321;50.816;6.054;2023-06-26T05:47:17;9.02;;;3.97;;
41627;SDS011;27321;50.816;6.054;2023-06-26T05:50:18;5.85;;;3.83;;
41627;SDS011;27321;50.816;6.054;2023-06-26T05:53:20;5.35;;;3.85;;
41627;SDS011;27321;50.816;6.054;2023-06-26T05:59:22;6.45;;;4.35;;
41627;SDS011;27321;50.816;6.054;2023-06-26T06:02:24;5.53;;;3.67;;
41627;SDS011;27321;50.816;6.054;2023-06-26T06:05:24;8.35;;;3.92;;
41627;SDS011;27321;50.816;6.054;2023-06-26T06:08:25;5.53;;;3.42;;
41627;SDS011;27321;50.816;6.054;2023-06-26T06:11:27;7.75;;;3.80;;
41627;SDS011;27321;50.816;6.054;2023-06-26T06:14:28;8.00;;;4.05;;
41627;SDS011;27321;50.816;6.054;2023-06-26T06:17:29;8.77;;;4.60;;
41627;SDS011;27321;50.816;6.054;2023-06-26T06:20:30;9.90;;;5.15;;
41627;SDS011;27321;50.816;6.054;2023-06-26T06:23:31;9.32;;;4.60;;
41627;SDS011;27321;50.816;6.054;2023-06-26T06:26:32;8.05;;;4.07;;
41627;SDS011;27321;50.816;6.054;2023-06-26T06:29:33;8.05;;;4.57;;
41627;SDS011;27321;50.816;6.054;2023-06-26T06:32:34;7.93;;;4.85;;
41627;SDS011;27321;50.816;6.054;2023-06-26T06:35:35;10.02;;;4.40;;
41627;SDS011;27321;50.816;6.054;2023-06-26T06:38:36;10.55;;;4.45;;
41627;SDS011;27321;50.816;6.054;2023-06-26T06:41:37;12.10;;;4.63;;
41627;SDS011;27321;50.816;6.054;2023-06-26T06:44:40;11.68;;;4.93;;
41627;SDS011;27321;50.816;6.054;2023-06-26T06:47:41;8.32;;;4.50;;
41627;SDS011;27321;50.816;6.054;2023-06-26T06:50:41;9.00;;;4.15;;
41627;SDS011;27321;50.816;6.054;2023-06-26T06:53:42;8.27;;;4.78;;
41627;SDS011;27321;50.816;6.054;2023-06-26T06:56:43;9.95;;;4.75;;
41627;SDS011;27321;50.816;6.054;2023-06-26T06:59:44;8.13;;;4.30;;
41627;SDS011;27321;50.816;6.054;2023-06-26T07:02:45;12.00;;;4.53;;
41627;SDS011;27321;50.816;6.054;2023-06-26T07:05:46;6.43;;;3.75;;
41627;SDS011;27321;50.816;6.054;2023-06-26T07:08:47;8.65;;;3.97;;
41627;SDS011;27321;50.816;6.054;2023-06-26T07:11:48;10.30;;;4.43;;
41627;SDS011;27321;50.816;6.054;2023-06-26T07:14:49;7.68;;;4.25;;
41627;SDS011;27321;50.816;6.054;2023-06-26T07:17:50;9.32;;;4.20;;
41627;SDS011;27321;50.816;6.054;2023-06-26T07:20:51;7.63;;;3.78;;
41627;SDS011;27321;50.816;6.054;2023-06-26T07:23:52;7.75;;;3.63;;
41627;SDS011;27321;50.816;6.054;2023-06-26T07:26:53;11.15;;;3.90;;
41627;SDS011;27321;50.816;6.054;2023-06-26T07:29:53;7.35;;;3.55;;
41627;SDS011;27321;50.816;6.054;2023-06-26T07:32:54;7.43;;;3.78;;
41627;SDS011;27321;50.816;6.054;2023-06-26T07:35:55;9.57;;;4.07;;
41627;SDS011;27321;50.816;6.054;2023-06-26T07:38:56;6.68;;;3.33;;
41627;SDS011;27321;50.816;6.054;2023-06-26T07:41:57;7.35;;;4.00;;
41627;SDS011;27321;50.816;6.054;2023-06-26T07:45:01;9.50;;;4.35;;
41627;SDS011;27321;50.816;6.054;2023-06-26T07:48:02;7.97;;;2.90;;
41627;SDS011;27321;50.816;6.054;2023-06-26T07:51:03;6.25;;;3.50;;
41627;SDS011;27321;50.816;6.054;2023-06-26T07:54:04;8.45;;;4.15;;
41627;SDS011;27321;50.816;6.054;2023-06-26T07:57:05;8.15;;;3.63;;
41627;SDS011;27321;50.816;6.054;2023-06-26T08:00:09;8.23;;;3.08;;
41627;SDS011;27321;50.816;6.054;2023-06-26T08:03:16;7.68;;;3.70;;
41627;SDS011;27321;50.816;6.054;2023-06-26T08:06:17;9.23;;;3.75;;
41627;SDS011;27321;50.816;6.054;2023-06-26T08:09:19;9.73;;;3.30;;
41627;SDS011;27321;50.816;6.054;2023-06-26T08:12:22;6.25;;;3.08;;
41627;SDS011;27321;50.816;6.054;2023-06-26T08:15:23;8.52;;;4.00;;
41627;SDS011;27321;50.816;6.054;2023-06-26T08:18:23;5.25;;;3.20;;
41627;SDS011;27321;50.816;6.054;2023-06-26T08:21:24;7.43;;;3.70;;
41627;SDS011;27321;50.816;6.054;2023-06-26T08:24:25;10.55;;;4.20;;
41627;SDS011;27321;50.816;6.054;2023-06-26T08:27:26;7.03;;;3.08;;
41627;SDS011;27321;50.816;6.054;2023-06-26T08:30:27;14.00;;;4.25;;
41627;SDS011;27321;50.816;6.054;2023-06-26T08:33:28;8.32;;;3.50;;
41627;SDS011;27321;50.816;6.054;2023-06-26T08:36:29;7.22;;;3.45;;
41627;SDS011;27321;50.816;6.054;2023-06-26T08:39:31;9.98;;;3.10;;
41627;SDS011;27321;50.816;6.054;2023-06-26T08:42:31;10.38;;;3.78;;
41627;SDS011;27321;50.816;6.054;2023-06-26T08:45:32;13.73;;;3.65;;
41627;SDS011;27321;50.816;6.054;2023-06-26T08:48:34;6.57;;;3.00;;
41627;SDS011;27321;50.816;6.054;2023-06-26T08:51:39;7.57;;;3.00;;
41627;SDS011;27321;50.816;6.054;2023-06-26T08:54:46;5.55;;;2.60;;
41627;SDS011;27321;50.816;6.054;2023-06-26T08:57:53;4.72;;;2.50;;
41627;SDS011;27321;50.816;6.054;2023-06-26T09:00:53;13.23;;;3.20;;
41627;SDS011;27321;50.816;6.054;2023-06-26T09:03:56;5.25;;;2.90;;
41627;SDS011;27321;50.816;6.054;2023-06-26T09:06:57;6.55;;;2.70;;
41627;SDS011;27321;50.816;6.054;2023-06-26T09:09:58;8.30;;;2.78;;
41627;SDS011;27321;50.816;6.054;2023-06-26T09:12:59;6.38;;;2.60;;
41627;SDS011;27321;50.816;6.054;2023-06-26T09:16:06;6.63;;;2.67;;
41627;SDS011;27321;50.816;6.054;2023-06-26T09:19:09;7.80;;;3.40;;
41627;SDS011;27321;50.816;6.054;2023-06-26T09:22:12;6.15;;;2.50;;
41627;SDS011;27321;50.816;6.054;2023-06-26T09:25:14;9.20;;;3.10;;
41627;SDS011;27321;50.816;6.054;2023-06-26T09:28:17;4.60;;;2.45;;
41627;SDS011;27321;50.816;6.054;2023-06-26T09:34:21;5.00;;;2.08;;
41627;SDS011;27321;50.816;6.054;2023-06-26T09:37:22;4.60;;;2.33;;
41627;SDS011;27321;50.816;6.054;2023-06-26T09:40:23;6.07;;;2.95;;
41627;SDS011;27321;50.816;6.054;2023-06-26T09:43:25;6.85;;;2.78;;
41627;SDS011;27321;50.816;6.054;2023-06-26T09:46:27;6.15;;;2.60;;
41627;SDS011;27321;50.816;6.054;2023-06-26T09:49:30;5.50;;;2.30;;
41627;SDS011;27321;50.816;6.054;2023-06-26T09:52:31;5.07;;;2.35;;
41627;SDS011;27321;50.816;6.054;2023-06-26T09:55:34;8.40;;;3.28;;
41627;SDS011;27321;50.816;6.054;2023-06-26T09:58:37;7.65;;;2.83;;
41627;SDS011;27321;50.816;6.054;2023-06-26T10:01:40;9.43;;;2.80;;
41627;SDS011;27321;50.816;6.054;2023-06-26T10:04:44;4.63;;;2.20;;
41627;SDS011;27321;50.816;6.054;2023-06-26T10:07:45;5.38;;;2.53;;
41627;SDS011;27321;50.816;6.054;2023-06-26T10:10:48;6.53;;;2.20;;
41627;SDS011;27321;50.816;6.054;2023-06-26T10:16:51;9.02;;;2.83;;
41627;SDS011;27321;50.816;6.054;2023-06-26T10:22:54;4.78;;;1.98;;
41627;SDS011;27321;50.816;6.054;2023-06-26T10:25:58;3.97;;;1.92;;
41627;SDS011;27321;50.816;6.054;2023-06-26T10:29:01;9.63;;;2.20;;
41627;SDS011;27321;50.816;6.054;2023-06-26T10:32:03;6.38;;;2.20;;
41627;SDS011;27321;50.816;6.054;2023-06-26T10:35:06;4.57;;;2.17;;
41627;SDS011;27321;50.816;6.054;2023-06-26T10:41:12;5.10;;;2.08;;
41627;SDS011;27321;50.816;6.054;2023-06-26T10:44:16;7.32;;;2.10;;
41627;SDS011;27321;50.816;6.054;2023-06-26T10:47:30;6.03;;;1.75;;
41627;SDS011;27321;50.816;6.054;2023-06-26T10:50:32;4.30;;;1.80;;
41627;SDS011;27321;50.816;6.054;2023-06-26T10:53:37;3.22;;;1.67;;
41627;SDS011;27321;50.816;6.054;2023-06-26T10:56:45;3.40;;;1.60;;
41627;SDS011;27321;50.816;6.054;2023-06-26T11:00:07;7.38;;;2.47;;
41627;SDS011;27321;50.816;6.054;2023-06-26T11:03:23;4.53;;;1.80;;
41627;SDS011;27321;50.816;6.054;2023-06-26T11:06:25;5.13;;;2.20;;
41627;SDS011;27321;50.816;6.054;2023-06-26T11:09:25;4.32;;;1.80;;
41627;SDS011;27321;50.816;6.054;2023-06-26T11:13:00;6.78;;;1.90;;
41627;SDS011;27321;50.816;6.054;2023-06-26T11:15:55;5.68;;;1.90;;
41627;SDS011;27321;50.816;6.054;2023-06-26T11:18:58;4.68;;;1.73;;
41627;SDS011;27321;50.816;6.054;2023-06-26T11:21:59;2.05;;;1.35;;
41627;SDS011;27321;50.816;6.054;2023-06-26T11:25:05;5.82;;;1.95;;
41627;SDS011;27321;50.816;6.054;2023-06-26T11:28:07;5.18;;;1.80;;
41627;SDS011;27321;50.816;6.054;2023-06-26T11:31:23;4.15;;;1.60;;
41627;SDS011;27321;50.816;6.054;2023-06-26T11:34:32;3.65;;;1.52;;
41627;SDS011;27321;50.816;6.054;2023-06-26T11:37:34;2.05;;;1.40;;
41627;SDS011;27321;50.816;6.054;2023-06-26T11:43:37;2.53;;;1.40;;
41627;SDS011;27321;50.816;6.054;2023-06-26T11:46:39;2.95;;;1.45;;
41627;SDS011;27321;50.816;6.054;2023-06-26T11:49:44;2.95;;;1.30;;
41627;SDS011;27321;50.816;6.054;2023-06-26T11:52:46;3.20;;;1.35;;
41627;SDS011;27321;50.816;6.054;2023-06-26T11:55:57;5.13;;;1.70;;
41627;SDS011;27321;50.816;6.054;2023-06-26T12:02:05;5.90;;;1.70;;
41627;SDS011;27321;50.816;6.054;2023-06-26T12:05:10;6.18;;;1.25;;
41627;SDS011;27321;50.816;6.054;2023-06-26T12:08:13;3.25;;;1.52;;
41627;SDS011;27321;50.816;6.054;2023-06-26T12:11:14;6.03;;;1.88;;
41627;SDS011;27321;50.816;6.054;2023-06-26T12:14:17;3.65;;;1.60;;
41627;SDS011;27321;50.816;6.054;2023-06-26T12:17:22;9.25;;;2.28;;
41627;SDS011;27321;50.816;6.054;2023-06-26T12:20:25;4.13;;;1.63;;
41627;SDS011;27321;50.816;6.054;2023-06-26T12:23:33;5.53;;;1.60;;
41627;SDS011;27321;50.816;6.054;2023-06-26T12:26:41;2.70;;;1.40;;
41627;SDS011;27321;50.816;6.054;2023-06-26T12:29:51;6.88;;;1.63;;
41627;SDS011;27321;50.816;6.054;2023-06-26T12:32:54;5.78;;;1.52;;
41627;SDS011;27321;50.816;6.054;2023-06-26T12:35:55;5.93;;;1.83;;
41627;SDS011;27321;50.816;6.054;2023-06-26T12:38:56;11.32;;;1.80;;
41627;SDS011;27321;50.816;6.054;2023-06-26T12:42:01;4.28;;;1.48;;
41627;SDS011;27321;50.816;6.054;2023-06-26T12:45:10;4.20;;;1.63;;
41627;SDS011;27321;50.816;6.054;2023-06-26T12:48:12;2.88;;;1.50;;
41627;SDS011;27321;50.816;6.054;2023-06-26T12:51:14;5.32;;;1.75;;
41627;SDS011;27321;50.816;6.054;2023-06-26T12:54:16;4.40;;;1.60;;
41627;SDS011;27321;50.816;6.054;2023-06-26T12:57:17;3.95;;;1.48;;
41627;SDS011;27321;50.816;6.054;2023-06-26T13:00:18;1.95;;;1.23;;
41627;SDS011;27321;50.816;6.054;2023-06-26T13:03:19;2.65;;;1.33;;
41627;SDS011;27321;50.816;6.054;2023-06-26T13:06:23;6.03;;;1.50;;
41627;SDS011;27321;50.816;6.054;2023-06-26T13:09:24;7.25;;;1.50;;
41627;SDS011;27321;50.816;6.054;2023-06-26T13:12:25;2.50;;;1.30;;
41627;SDS011;27321;50.816;6.054;2023-06-26T13:15:26;1.67;;;1.10;;
41627;SDS011;27321;50.816;6.054;2023-06-26T13:18:28;3.50;;;1.38;;
41627;SDS011;27321;50.816;6.054;2023-06-26T13:21:29;4.25;;;1.40;;
41627;SDS011;27321;50.816;6.054;2023-06-26T13:24:30;3.58;;;1.63;;
41627;SDS011;27321;50.816;6.054;2023-06-26T13:27:31;5.07;;;1.70;;
41627;SDS011;27321;50.816;6.054;2023-06-26T13:30:32;2.33;;;1.13;;
41627;SDS011;27321;50.816;6.054;2023-06-26T13:33:33;3.90;;;1.38;;
41627;SDS011;27321;50.816;6.054;2023-06-26T13:36:34;3.55;;;1.15;;
41627;SDS011;27321;50.816;6.054;2023-06-26T13:42:37;1.85;;;1.02;;
41627;SDS011;27321;50.816;6.054;2023-06-26T13:45:38;7.20;;;1.60;;
41627;SDS011;27321;50.816;6.054;2023-06-26T13:52:06;2.58;;;1.27;;
41627;SDS011;27321;50.816;6.054;2023-06-26T13:55:10;2.20;;;1.30;;
41627;SDS011;27321;50.816;6.054;2023-06-26T13:58:11;5.25;;;1.38;;
41627;SDS011;27321;50.816;6.054;2023-06-26T14:01:13;4.65;;;1.88;;
41627;SDS011;27321;50.816;6.054;2023-06-26T14:04:14;3.10;;;1.30;;
41627;SDS011;27321;50.816;6.054;2023-06-26T14:10:16;1.60;;;1.20;;
41627;SDS011;27321;50.816;6.054;2023-06-26T14:13:17;1.92;;;1.35;;
41627;SDS011;27321;50.816;6.054;2023-06-26T14:19:20;2.22;;;1.33;;
41627;SDS011;27321;50.816;6.054;2023-06-26T14:22:21;1.80;;;1.30;;
41627;SDS011;27321;50.816;6.054;2023-06-26T14:25:23;3.97;;;1.20;;
41627;SDS011;27321;50.816;6.054;2023-06-26T14:28:24;2.53;;;1.70;;
41627;SDS011;27321;50.816;6.054;2023-06-26T14:31:25;3.85;;;1.63;;
41627;SDS011;27321;50.816;6.054;2023-06-26T14:34:26;3.25;;;1.30;;
41627;SDS011;27321;50.816;6.054;2023-06-26T14:37:28;4.97;;;1.48;;
41627;SDS011;27321;50.816;6.054;2023-06-26T14:40:30;3.33;;;1.48;;
41627;SDS011;27321;50.816;6.054;2023-06-26T14:43:31;7.05;;;1.33;;
41627;SDS011;27321;50.816;6.054;2023-06-26T14:46:32;1.88;;;1.10;;
41627;SDS011;27321;50.816;6.054;2023-06-26T14:52:34;2.42;;;1.13;;
41627;SDS011;27321;50.816;6.054;2023-06-26T14:55:35;5.95;;;1.67;;
41627;SDS011;27321;50.816;6.054;2023-06-26T15:01:36;6.53;;;1.55;;
41627;SDS011;27321;50.816;6.054;2023-06-26T15:04:37;4.78;;;1.70;;
41627;SDS011;27321;50.816;6.054;2023-06-26T15:07:38;1.60;;;1.27;;
41627;SDS011;27321;50.816;6.054;2023-06-26T15:10:39;2.88;;;1.27;;
41627;SDS011;27321;50.816;6.054;2023-06-26T15:16:41;8.23;;;1.42;;
41627;SDS011;27321;50.816;6.054;2023-06-26T15:19:42;6.28;;;1.95;;
41627;SDS011;27321;50.816;6.054;2023-06-26T15:25:44;2.47;;;1.25;;
41627;SDS011;27321;50.816;6.054;2023-06-26T15:31:46;4.25;;;1.27;;
41627;SDS011;27321;50.816;6.054;2023-06-26T15:37:48;2.05;;;1.33;;
41627;SDS011;27321;50.816;6.054;2023-06-26T15:40:49;2.35;;;1.27;;
41627;SDS011;27321;50.816;6.054;2023-06-26T15:46:51;2.80;;;1.48;;
41627;SDS011;27321;50.816;6.054;2023-06-26T15:52:53;2.45;;;1.63;;
41627;SDS011;27321;50.816;6.054;2023-06-26T15:58:55;2.90;;;1.27;;
41627;SDS011;27321;50.816;6.054;2023-06-26T16:04:56;3.33;;;1.60;;
41627;SDS011;27321;50.816;6.054;2023-06-26T16:10:58;2.47;;;1.10;;
41627;SDS011;27321;50.816;6.054;2023-06-26T16:17:00;2.95;;;1.20;;
41627;SDS011;27321;50.816;6.054;2023-06-26T16:20:01;2.35;;;1.30;;
41627;SDS011;27321;50.816;6.054;2023-06-26T16:23:02;2.78;;;1.27;;
41627;SDS011;27321;50.816;6.054;2023-06-26T16:26:03;2.28;;;1.35;;
41627;SDS011;27321;50.816;6.054;2023-06-26T16:29:04;3.08;;;1.35;;
41627;SDS011;27321;50.816;6.054;2023-06-26T16:32:06;2.95;;;1.52;;
41627;SDS011;27321;50.816;6.054;2023-06-26T16:35:08;4.28;;;1.55;;
41627;SDS011;27321;50.816;6.054;2023-06-26T16:41:10;3.78;;;1.45;;
41627;SDS011;27321;50.816;6.054;2023-06-26T16:47:11;3.97;;;1.52;;
41627;SDS011;27321;50.816;6.054;2023-06-26T16:50:16;5.20;;;1.80;;
41627;SDS011;27321;50.816;6.054;2023-06-26T16:53:17;2.20;;;1.42;;
41627;SDS011;27321;50.816;6.054;2023-06-26T16:59:19;3.47;;;1.40;;
41627;SDS011;27321;50.816;6.054;2023-06-26T17:02:20;2.47;;;1.50;;
41627;SDS011;27321;50.816;6.054;2023-06-26T17:05:21;3.95;;;1.58;;
41627;SDS011;27321;50.816;6.054;2023-06-26T17:08:22;4.90;;;1.70;;
41627;SDS011;27321;50.816;6.054;2023-06-26T17:11:23;3.17;;;1.50;;
41627;SDS011;27321;50.816;6.054;2023-06-26T17:14:24;2.58;;;1.60;;
41627;SDS011;27321;50.816;6.054;2023-06-26T17:17:25;2.83;;;1.58;;
41627;SDS011;27321;50.816;6.054;2023-06-26T17:20:26;2.28;;;1.35;;
41627;SDS011;27321;50.816;6.054;2023-06-26T17:23:27;3.92;;;1.50;;
41627;SDS011;27321;50.816;6.054;2023-06-26T17:26:29;4.00;;;1.92;;
41627;SDS011;27321;50.816;6.054;2023-06-26T17:29:31;3.42;;;1.75;;
41627;SDS011;27321;50.816;6.054;2023-06-26T17:32:32;3.05;;;1.75;;
41627;SDS011;27321;50.816;6.054;2023-06-26T17:38:34;3.85;;;1.50;;
41627;SDS011;27321;50.816;6.054;2023-06-26T17:41:37;2.83;;;1.45;;
41627;SDS011;27321;50.816;6.054;2023-06-26T17:44:38;3.33;;;1.45;;
41627;SDS011;27321;50.816;6.054;2023-06-26T17:47:39;4.32;;;1.35;;
41627;SDS011;27321;50.816;6.054;2023-06-26T17:50:44;1.90;;;1.50;;
41627;SDS011;27321;50.816;6.054;2023-06-26T17:53:44;4.43;;;1.40;;
41627;SDS011;27321;50.816;6.054;2023-06-26T17:56:45;3.95;;;1.55;;
41627;SDS011;27321;50.816;6.054;2023-06-26T18:02:48;5.35;;;1.50;;
41627;SDS011;27321;50.816;6.054;2023-06-26T18:05:50;2.25;;;1.02;;
41627;SDS011;27321;50.816;6.054;2023-06-26T18:08:50;2.58;;;1.48;;
41627;SDS011;27321;50.816;6.054;2023-06-26T18:11:51;3.88;;;1.50;;
41627;SDS011;27321;50.816;6.054;2023-06-26T18:14:52;2.30;;;1.40;;
41627;SDS011;27321;50.816;6.054;2023-06-26T18:17:53;6.82;;;1.55;;
41627;SDS011;27321;50.816;6.054;2023-06-26T18:20:54;1.92;;;1.40;;
41627;SDS011;27321;50.816;6.054;2023-06-26T18:23:55;2.88;;;1.40;;
41627;SDS011;27321;50.816;6.054;2023-06-26T18:26:59;2.33;;;1.60;;
41627;SDS011;27321;50.816;6.054;2023-06-26T18:30:01;2.75;;;1.42;;
41627;SDS011;27321;50.816;6.054;2023-06-26T18:33:02;1.75;;;1.35;;
41627;SDS011;27321;50.816;6.054;2023-06-26T18:39:06;1.50;;;1.10;;
41627;SDS011;27321;50.816;6.054;2023-06-26T18:42:07;2.30;;;1.20;;
41627;SDS011;27321;50.816;6.054;2023-06-26T18:45:10;2.33;;;1.20;;
41627;SDS011;27321;50.816;6.054;2023-06-26T18:48:12;2.17;;;1.38;;
41627;SDS011;27321;50.816;6.054;2023-06-26T18:51:13;3.30;;;1.70;;
41627;SDS011;27321;50.816;6.054;2023-06-26T18:54:14;3.10;;;1.58;;
41627;SDS011;27321;50.816;6.054;2023-06-26T18:57:17;3.75;;;1.33;;
41627;SDS011;27321;50.816;6.054;2023-06-26T19:00:18;2.35;;;1.17;;
41627;SDS011;27321;50.816;6.054;2023-06-26T19:03:18;1.92;;;1.30;;
41627;SDS011;27321;50.816;6.054;2023-06-26T19:06:19;3.22;;;1.38;;
41627;SDS011;27321;50.816;6.054;2023-06-26T19:09:20;2.35;;;1.40;;
41627;SDS011;27321;50.816;6.054;2023-06-26T19:12:22;1.40;;;1.20;;
41627;SDS011;27321;50.816;6.054;2023-06-26T19:15:23;3.08;;;1.27;;
41627;SDS011;27321;50.816;6.054;2023-06-26T19:18:24;2.25;;;1.40;;
41627;SDS011;27321;50.816;6.054;2023-06-26T19:21:25;2.65;;;1.40;;
41627;SDS011;27321;50.816;6.054;2023-06-26T19:24:29;1.63;;;1.20;;
41627;SDS011;27321;50.816;6.054;2023-06-26T19:27:30;1.42;;;1.08;;
41627;SDS011;27321;50.816;6.054;2023-06-26T19:30:31;2.22;;;1.20;;
41627;SDS011;27321;50.816;6.054;2023-06-26T19:33:32;3.60;;;1.10;;
41627;SDS011;27321;50.816;6.054;2023-06-26T19:36:33;2.75;;;1.30;;
41627;SDS011;27321;50.816;6.054;2023-06-26T19:39:34;1.90;;;1.45;;
41627;SDS011;27321;50.816;6.054;2023-06-26T19:42:38;2.17;;;1.40;;
41627;SDS011;27321;50.816;6.054;2023-06-26T19:45:39;2.95;;;1.30;;
41627;SDS011;27321;50.816;6.054;2023-06-26T19:48:40;1.40;;;1.08;;
41627;SDS011;27321;50.816;6.054;2023-06-26T19:51:41;3.97;;;1.42;;
41627;SDS011;27321;50.816;6.054;2023-06-26T19:54:42;1.55;;;1.10;;
41627;SDS011;27321;50.816;6.054;2023-06-26T19:57:43;1.50;;;1.10;;
41627;SDS011;27321;50.816;6.054;2023-06-26T20:00:46;1.42;;;1.10;;